Wunstorf Airport ETNW

Flugplatz Daten

Name: Wunstorf Airport

Ident: ETNW

Lat: 52,45729828

Long: 9,4271698

Platzhöhe: 187 ft

IataCode:

City:

Metar

2021/10/25 22:20
ETNW 252220Z 24008KT 9999 BKN036 11/10 Q1017 BLU

Taf

2021/10/25 17:37
TAF ETNW 251628Z 2517/2617 21008KT 9999 NSW BKN040
TEMPO 2520/2605 21008KT 4000 RADZ BKN012
TEMPO 2605/2617 24010KT 4000 SHRA BKN010TCU BY ETGL
Gewünschte Webcam nicht vorhanden? Dann fügen Sie eine hinzu. Sie wird dann so schnell wie möglich freigeschaltet
Url: Title: